Time;durP1;ratioP1;P1;durP2;ratioP2;P2;SDS_P1;SDS_P2;PMS_P1;PMS_P2;Temp;Humidity;BMP_temperature;BMP_pressure;BME280_temperature;BME280_humidity;BME280_pressure;Samples;Min_cycle;Max_cycle;Signal;HPM_P1;HPM_P2
2022/08/28 00:00:55;;;;;;;14.15;6.63;;;;;;;22.16;47.12;94743.06;5013658;28;20226;-70
2022/08/28 00:03:20;;;;;;;12.25;6.38;;;;;;;22.22;48.20;94750.22;5011984;28;20210;-69
2022/08/28 00:05:46;;;;;;;13.75;6.47;;;;;;;21.97;48.59;94750.38;5003910;28;20225;-70
2022/08/28 00:08:15;;;;;;;12.90;7.30;;;;;;;21.87;49.92;94744.75;5012657;28;20215;-70
2022/08/28 00:10:41;;;;;;;11.38;7.03;;;;;;;21.96;49.99;94747.91;5028098;28;20214;-69
2022/08/28 00:13:08;;;;;;;12.95;6.13;;;;;;;21.78;50.34;94751.47;5010653;28;20220;-70
2022/08/28 00:15:37;;;;;;;12.75;6.32;;;;;;;21.74;49.47;94747.63;5007550;28;20233;-70
2022/08/28 00:18:05;;;;;;;10.93;7.28;;;;;;;21.72;49.32;94747.03;5011546;28;20219;-70
2022/08/28 00:20:32;;;;;;;10.73;6.07;;;;;;;21.74;48.67;94756.47;5025027;28;20222;-69
2022/08/28 00:22:58;;;;;;;9.73;6.43;;;;;;;21.61;48.98;94758.50;5010910;28;20214;-70
2022/08/28 00:25:26;;;;;;;11.02;6.38;;;;;;;21.55;49.17;94763.72;5006032;28;20306;-69
2022/08/28 00:27:57;;;;;;;11.75;6.47;;;;;;;21.56;49.39;94761.84;5002233;28;20575;-69
2022/08/28 00:30:28;;;;;;;11.50;6.07;;;;;;;21.71;48.76;94751.56;5013640;28;20295;-69
2022/08/28 00:32:55;;;;;;;7.47;5.65;;;;;;;21.72;48.59;94752.38;5015254;28;20203;-70
2022/08/28 00:35:22;;;;;;;11.43;6.18;;;;;;;21.74;48.48;94753.78;5023274;28;20277;-70
2022/08/28 00:37:49;;;;;;;9.63;5.95;;;;;;;21.77;48.45;94756.00;5012099;28;20222;-70
2022/08/28 00:40:17;;;;;;;10.02;6.65;;;;;;;21.64;48.63;94758.06;5013295;28;20238;-70
2022/08/28 00:42:45;;;;;;;9.23;6.60;;;;;;;21.72;48.51;94749.69;5008840;28;20222;-69
2022/08/28 00:45:12;;;;;;;8.38;6.05;;;;;;;21.49;49.31;94751.25;5018136;28;20214;-70
2022/08/28 00:47:38;;;;;;;12.32;6.85;;;;;;;21.43;50.31;94754.00;5006055;28;20211;-69
2022/08/28 00:50:07;;;;;;;12.55;7.35;;;;;;;21.53;50.68;94757.78;5013826;28;20375;-70
2022/08/28 00:52:32;;;;;;;10.52;7.03;;;;;;;21.35;50.71;94755.09;5008685;28;20223;-70
2022/08/28 00:55:01;;;;;;;12.00;7.18;;;;;;;21.40;50.26;94755.25;5013340;28;20227;-69
2022/08/28 00:57:36;;;;;;;11.48;7.22;;;;;;;21.28;51.47;94754.38;5014205;28;20223;-69
2022/08/28 01:00:08;;;;;;;10.15;6.70;;;;;;;21.23;52.07;94759.59;5015748;28;20211;-69
2022/08/28 01:02:33;;;;;;;11.80;7.63;;;;;;;21.31;51.96;94762.75;5012391;28;20253;-69
2022/08/28 01:04:59;;;;;;;12.82;7.30;;;;;;;21.40;51.72;94759.81;5013255;28;20231;-69
2022/08/28 01:07:25;;;;;;;12.63;6.78;;;;;;;21.19;52.91;94764.53;5015828;28;20234;-70
2022/08/28 01:09:53;;;;;;;11.85;7.30;;;;;;;21.08;53.32;94754.59;5006812;28;20219;-69
2022/08/28 01:12:26;;;;;;;14.45;7.15;;;;;;;21.02;53.32;94750.16;5011755;28;20195;-70
2022/08/28 01:14:58;;;;;;;9.40;6.95;;;;;;;20.99;53.85;94759.44;5004024;28;20234;-69
2022/08/28 01:17:30;;;;;;;11.68;7.10;;;;;;;21.13;53.62;94758.22;5002581;28;20590;-70
2022/08/28 01:20:01;;;;;;;11.07;7.13;;;;;;;21.22;53.29;94763.28;5009207;28;20231;-69
2022/08/28 01:22:36;;;;;;;7.88;7.07;;;;;;;21.11;53.29;94760.31;5011765;28;20218;-69
2022/08/28 01:25:05;;;;;;;11.35;7.07;;;;;;;20.82;54.18;94756.53;5002697;28;20223;-70
2022/08/28 01:27:30;;;;;;;10.43;6.60;;;;;;;20.86;53.91;94754.22;5006596;28;20254;-69
2022/08/28 01:29:56;;;;;;;15.23;7.32;;;;;;;20.86;52.68;94764.91;5004864;28;20223;-69
2022/08/28 01:32:39;;;;;;;11.98;7.13;;;;;;;20.95;52.69;94763.56;5005021;28;20230;-70
2022/08/28 01:35:08;;;;;;;11.98;7.20;;;;;;;20.86;53.83;94768.41;5004366;28;20214;-69
2022/08/28 01:37:34;;;;;;;11.10;6.90;;;;;;;20.77;53.18;94763.56;5000492;28;20223;-70
2022/08/28 01:40:00;;;;;;;18.25;7.40;;;;;;;20.81;54.46;94762.91;5010603;28;20233;-69
2022/08/28 01:42:25;;;;;;;15.23;7.03;;;;;;;20.91;54.45;94763.22;5013114;28;20285;-69
2022/08/28 01:44:52;;;;;;;12.57;7.80;;;;;;;21.04;53.77;94756.91;5011287;28;20211;-69
2022/08/28 01:47:19;;;;;;;10.88;7.00;;;;;;;20.92;53.89;94764.03;5016060;28;20711;-70
2022/08/28 01:49:44;;;;;;;9.27;6.88;;;;;;;20.64;54.57;94761.84;5018828;28;20219;-69
2022/08/28 01:52:10;;;;;;;9.35;6.93;;;;;;;20.61;54.26;94763.13;5015913;28;20230;-69
2022/08/28 01:54:35;;;;;;;14.10;7.30;;;;;;;20.61;53.76;94765.78;5011209;28;20238;-69
2022/08/28 01:57:01;;;;;;;11.93;6.47;;;;;;;20.56;54.04;94762.94;5000936;28;20893;-69
2022/08/28 01:59:26;;;;;;;10.65;6.63;;;;;;;20.73;52.62;94759.72;5011113;28;20223;-70
2022/08/28 02:01:52;;;;;;;10.60;6.30;;;;;;;20.73;52.35;94765.06;5011826;28;20310;-69
2022/08/28 02:04:18;;;;;;;9.68;7.05;;;;;;;20.65;52.60;94758.94;5011140;28;20261;-70
2022/08/28 02:06:43;;;;;;;10.13;7.00;;;;;;;20.55;52.40;94769.31;5024538;28;20226;-69
2022/08/28 02:09:10;;;;;;;12.35;7.10;;;;;;;20.39;52.93;94767.16;5013224;28;20214;-70
2022/08/28 02:11:38;;;;;;;10.55;6.90;;;;;;;20.46;52.84;94765.28;5009295;28;20216;-68
2022/08/28 02:14:03;;;;;;;9.93;6.93;;;;;;;20.60;52.63;94764.13;5009542;28;20235;-70
2022/08/28 02:16:29;;;;;;;13.90;7.47;;;;;;;20.64;51.76;94762.66;5002297;28;20218;-69
2022/08/28 02:18:55;;;;;;;9.48;6.93;;;;;;;20.57;52.81;94756.56;5010622;28;20223;-70
2022/08/28 02:21:20;;;;;;;13.25;6.43;;;;;;;20.38;54.18;94763.69;5003923;28;20206;-70
2022/08/28 02:23:45;;;;;;;9.80;6.65;;;;;;;20.36;53.93;94759.59;5011878;28;20198;-69
2022/08/28 02:26:13;;;;;;;10.15;6.50;;;;;;;20.47;52.94;94765.06;5009830;28;20258;-71
2022/08/28 02:28:39;;;;;;;14.25;7.00;;;;;;;20.04;54.38;94767.66;5009523;28;20222;-70
2022/08/28 02:31:09;;;;;;;12.85;7.50;;;;;;;20.13;53.73;94762.84;5009967;28;20218;-69
2022/08/28 02:33:40;;;;;;;12.23;6.60;;;;;;;20.23;53.61;94760.53;5009281;28;20234;-69
2022/08/28 02:36:07;;;;;;;17.35;7.28;;;;;;;20.28;53.33;94758.03;5007343;28;20217;-69
2022/08/28 02:38:33;;;;;;;9.52;6.22;;;;;;;20.22;53.17;94754.38;5027526;28;20224;-69
2022/08/28 02:40:59;;;;;;;10.73;7.35;;;;;;;20.27;54.04;94759.88;5003444;28;20222;-70
2022/08/28 02:43:24;;;;;;;12.13;7.10;;;;;;;20.34;54.88;94756.31;5006045;28;20942;-70
2022/08/28 02:45:50;;;;;;;11.02;7.32;;;;;;;19.98;55.84;94763.19;5009173;28;20246;-68
2022/08/28 02:48:15;;;;;;;11.80;7.68;;;;;;;19.95;55.63;94766.28;5014633;28;20210;-68
2022/08/28 02:50:41;;;;;;;12.55;7.72;;;;;;;20.03;56.09;94771.38;5013904;28;20203;-68
2022/08/28 02:53:06;;;;;;;13.88;7.65;;;;;;;20.05;56.55;94769.31;5010801;28;20299;-70
2022/08/28 02:55:32;;;;;;;12.25;7.80;;;;;;;20.20;56.07;94775.13;5008210;28;20242;-69
2022/08/28 02:57:58;;;;;;;12.05;7.70;;;;;;;20.10;56.17;94788.16;5009306;28;20322;-70
2022/08/28 03:00:25;;;;;;;11.57;7.60;;;;;;;19.91;56.93;94776.56;5002689;28;20207;-71
2022/08/28 03:02:51;;;;;;;10.93;8.10;;;;;;;19.95;57.39;94776.97;5005761;28;20203;-68
2022/08/28 03:05:21;;;;;;;11.75;8.02;;;;;;;20.01;56.70;94773.44;5015712;28;20250;-69
2022/08/28 03:07:48;;;;;;;15.68;8.05;;;;;;;19.89;57.44;94775.13;5012087;28;20317;-69
2022/08/28 03:10:14;;;;;;;9.95;7.85;;;;;;;19.80;57.87;94780.72;5014624;28;20223;-69
2022/08/28 03:12:40;;;;;;;11.25;7.55;;;;;;;19.78;57.94;94780.16;5011065;28;20227;-69
2022/08/28 03:15:06;;;;;;;10.13;7.57;;;;;;;19.73;57.77;94779.97;4999592;28;20234;-69
2022/08/28 03:17:33;;;;;;;9.85;7.68;;;;;;;19.87;57.65;94787.91;5009450;28;20202;-68
2022/08/28 03:19:59;;;;;;;9.27;7.43;;;;;;;19.86;57.63;94792.41;5007022;28;20222;-69
2022/08/28 03:25:10;;;;;;;12.60;7.68;;;;;;;19.67;58.01;94793.34;4999102;28;20310;-69
2022/08/28 03:27:36;;;;;;;14.35;8.15;;;;;;;19.54;58.58;94783.50;5005791;28;20234;-70
2022/08/28 03:30:05;;;;;;;10.13;7.10;;;;;;;19.72;58.07;94783.66;5021746;28;20207;-69
2022/08/28 03:32:31;;;;;;;12.10;8.20;;;;;;;19.61;58.25;94782.44;5007253;28;20234;-69
2022/08/28 03:34:57;;;;;;;19.20;8.02;;;;;;;19.57;58.35;94786.59;5005196;28;20251;-69
2022/08/28 03:37:22;;;;;;;11.15;7.93;;;;;;;19.67;57.75;94791.47;5012884;28;20694;-69
2022/08/28 03:39:48;;;;;;;11.63;7.47;;;;;;;19.71;57.96;94786.56;5007989;28;20218;-69
2022/08/28 03:42:14;;;;;;;13.25;7.78;;;;;;;19.54;58.32;94802.19;4999765;28;20218;-69
2022/08/28 03:44:39;;;;;;;11.55;7.47;;;;;;;19.58;58.30;94798.88;5002184;28;20211;-69
2022/08/28 03:47:05;;;;;;;11.02;7.43;;;;;;;19.59;58.34;94805.03;5004192;28;20218;-69
2022/08/28 03:49:30;;;;;;;14.48;7.93;;;;;;;19.67;57.66;94802.16;5015917;28;20225;-69
2022/08/28 03:51:56;;;;;;;11.32;7.63;;;;;;;19.43;57.25;94803.66;5009889;28;20243;-69
2022/08/28 03:54:23;;;;;;;14.82;7.65;;;;;;;19.45;56.54;94811.47;5006016;28;20218;-69
2022/08/28 03:56:50;;;;;;;13.27;7.70;;;;;;;19.53;56.03;94803.22;5024027;28;20204;-69
2022/08/28 03:59:17;;;;;;;13.07;7.45;;;;;;;19.71;55.42;94811.38;5010831;28;20746;-69
2022/08/28 04:01:42;;;;;;;14.93;7.05;;;;;;;19.76;55.03;94813.41;5013435;28;20219;-65
2022/08/28 04:04:08;;;;;;;13.35;7.60;;;;;;;19.70;54.88;94817.75;5011735;28;20272;-65
2022/08/28 04:06:34;;;;;;;10.55;7.35;;;;;;;19.60;55.00;94815.50;5006649;28;20230;-65
2022/08/28 04:08:59;;;;;;;9.52;7.40;;;;;;;19.65;55.46;94827.41;5002085;28;20873;-65
2022/08/28 04:11:24;;;;;;;13.70;7.78;;;;;;;19.51;55.99;94819.44;5008676;28;20238;-65
2022/08/28 04:13:50;;;;;;;9.60;6.97;;;;;;;19.56;56.10;94821.47;5012134;28;20279;-64
2022/08/28 04:16:18;;;;;;;13.82;7.50;;;;;;;19.59;56.03;94829.88;5003735;28;20227;-65
2022/08/28 04:18:45;;;;;;;11.88;7.68;;;;;;;19.60;56.34;94833.34;5009051;28;20222;-65
2022/08/28 04:21:22;;;;;;;10.10;7.18;;;;;;;19.54;56.99;94839.50;5006655;28;20260;-65
2022/08/28 04:23:47;;;;;;;12.38;7.32;;;;;;;19.53;57.00;94838.69;5005649;28;20214;-65
2022/08/28 04:26:17;;;;;;;12.60;7.95;;;;;;;19.53;57.19;94836.03;5008292;28;20223;-65
2022/08/28 04:28:43;;;;;;;9.20;7.70;;;;;;;19.50;58.01;94839.13;5007942;28;20227;-62
2022/08/28 04:31:09;;;;;;;10.60;7.45;;;;;;;19.71;57.70;94838.06;5008302;28;20223;-65
2022/08/28 04:33:36;;;;;;;13.80;8.60;;;;;;;19.79;57.04;94840.47;5008243;28;20241;-65
2022/08/28 04:36:08;;;;;;;12.95;7.90;;;;;;;19.75;56.82;94849.94;5011166;28;20255;-64
2022/08/28 04:38:33;;;;;;;11.63;7.75;;;;;;;19.78;57.17;94848.69;5001987;28;20240;-65
2022/08/28 04:41:02;;;;;;;13.40;7.93;;;;;;;19.87;57.21;94857.28;5012232;28;20298;-65
2022/08/28 04:43:28;;;;;;;14.55;8.20;;;;;;;19.71;57.63;94847.91;5006760;28;20216;-65
2022/08/28 04:45:53;;;;;;;14.23;8.55;;;;;;;19.62;58.22;94852.63;5005922;28;20314;-65
2022/08/28 04:48:19;;;;;;;12.55;8.23;;;;;;;19.73;57.75;94852.00;5012978;28;20211;-65
2022/08/28 04:50:47;;;;;;;11.60;7.57;;;;;;;19.88;57.58;94857.03;5009831;28;20320;-65
2022/08/28 04:53:15;;;;;;;14.95;8.15;;;;;;;19.99;57.48;94853.72;5008574;28;20310;-65
2022/08/28 04:55:42;;;;;;;11.95;8.00;;;;;;;19.98;57.49;94849.41;5028938;28;20227;-65
2022/08/28 04:58:08;;;;;;;9.48;7.72;;;;;;;19.98;57.31;94853.91;5013513;28;20226;-65
2022/08/28 05:00:37;;;;;;;12.02;7.32;;;;;;;20.03;57.05;94862.09;5009085;28;20225;-64
2022/08/28 05:03:03;;;;;;;12.18;7.70;;;;;;;20.05;56.20;94858.19;5020619;28;20212;-63
2022/08/28 05:05:29;;;;;;;10.32;6.78;;;;;;;20.11;54.67;94853.03;5010955;28;20226;-63
2022/08/28 05:07:54;;;;;;;12.05;7.60;;;;;;;20.18;54.33;94864.47;5008820;28;20460;-63
2022/08/28 05:10:20;;;;;;;10.60;7.60;;;;;;;20.24;54.87;94861.78;5015205;28;20221;-63
2022/08/28 05:12:45;;;;;;;14.60;8.20;;;;;;;20.32;53.67;94863.38;5008805;28;20231;-65
2022/08/28 05:15:11;;;;;;;9.40;7.82;;;;;;;20.44;53.86;94858.13;5005660;28;20243;-64
2022/08/28 05:17:36;;;;;;;9.70;7.53;;;;;;;20.36;54.42;94861.06;5007466;28;20207;-64
2022/08/28 05:20:03;;;;;;;9.93;7.82;;;;;;;20.51;53.34;94866.13;5013428;28;20225;-64
2022/08/28 05:22:30;;;;;;;11.50;7.60;;;;;;;20.55;53.00;94873.50;5010949;28;20227;-64
2022/08/28 05:24:55;;;;;;;15.23;8.05;;;;;;;20.66;53.31;94878.16;5010239;28;20589;-65
2022/08/28 05:27:23;;;;;;;12.32;8.00;;;;;;;20.75;54.09;94878.69;5009395;28;20210;-64
2022/08/28 05:29:49;;;;;;;10.32;7.93;;;;;;;20.82;53.89;94867.94;4998334;28;20622;-64
2022/08/28 05:32:15;;;;;;;12.18;7.97;;;;;;;20.89;53.53;94872.19;5010656;28;20369;-65
2022/08/28 05:34:40;;;;;;;12.73;8.63;;;;;;;20.76;53.58;94882.19;4998717;28;20231;-64
2022/08/28 05:37:07;;;;;;;14.02;9.35;;;;;;;20.76;53.62;94876.84;5013350;28;20256;-64
2022/08/28 05:39:33;;;;;;;14.57;8.55;;;;;;;20.81;53.44;94879.66;5010429;28;20222;-64
2022/08/28 05:41:58;;;;;;;11.27;8.35;;;;;;;20.83;53.71;94883.75;4999382;28;20199;-64
2022/08/28 05:44:24;;;;;;;9.45;8.45;;;;;;;20.86;53.61;94886.00;5005205;28;20277;-64
2022/08/28 05:46:49;;;;;;;14.65;8.38;;;;;;;20.95;53.54;94886.53;5017368;28;20298;-64
2022/08/28 05:49:18;;;;;;;13.40;8.30;;;;;;;20.93;53.54;94870.72;5010205;28;20607;-64
2022/08/28 05:51:44;;;;;;;15.48;8.90;;;;;;;21.02;52.75;94875.78;5007037;28;20227;-64
2022/08/28 05:54:11;;;;;;;14.75;8.48;;;;;;;21.09;52.85;94877.38;5012937;28;20211;-64
2022/08/28 05:56:38;;;;;;;10.90;8.23;;;;;;;21.21;52.69;94874.78;5007757;28;20342;-65
2022/08/28 05:59:05;;;;;;;11.32;8.60;;;;;;;21.25;52.95;94885.84;5004407;28;20219;-64
2022/08/28 06:01:35;;;;;;;13.07;8.18;;;;;;;21.30;52.70;94878.81;5014715;28;20224;-64
2022/08/28 06:04:07;;;;;;;14.73;8.70;;;;;;;21.43;51.62;94880.53;5012255;28;20313;-64
2022/08/28 06:06:34;;;;;;;9.60;8.10;;;;;;;21.44;51.67;94882.19;5008813;28;20218;-64
2022/08/28 06:09:04;;;;;;;15.80;8.45;;;;;;;21.46;51.52;94882.75;4995161;28;20207;-65
2022/08/28 06:11:30;;;;;;;12.38;8.40;;;;;;;21.53;50.95;94875.47;5009819;28;20254;-64
2022/08/28 06:14:00;;;;;;;11.88;8.50;;;;;;;21.52;50.86;94883.75;5012146;28;20274;-64
2022/08/28 06:16:26;;;;;;;13.77;8.38;;;;;;;21.50;51.13;94886.63;5019180;28;20215;-64
2022/08/28 06:18:51;;;;;;;17.40;8.60;;;;;;;21.49;51.16;94881.50;5012815;28;20282;-65
2022/08/28 06:21:17;;;;;;;11.90;7.90;;;;;;;21.56;51.04;94880.38;5011020;28;20231;-64
2022/08/28 06:23:43;;;;;;;11.48;8.65;;;;;;;21.71;50.22;94885.38;5009608;28;20286;-64
2022/08/28 06:26:09;;;;;;;18.45;9.13;;;;;;;21.84;50.06;94886.22;5010455;28;20223;-65
2022/08/28 06:28:34;;;;;;;12.05;8.25;;;;;;;21.92;50.13;94870.69;5010184;28;20298;-65
2022/08/28 06:31:03;;;;;;;12.90;8.68;;;;;;;22.03;50.15;94886.00;5011264;28;20222;-64
2022/08/28 06:33:29;;;;;;;10.25;7.93;;;;;;;22.05;50.64;94885.75;5007589;28;20261;-64
2022/08/28 06:35:55;;;;;;;11.55;7.93;;;;;;;22.02;51.14;94881.69;5009041;28;20211;-64
2022/08/28 06:38:23;;;;;;;17.02;8.38;;;;;;;22.19;49.89;94889.13;5008065;28;20241;-64
2022/08/28 06:40:52;;;;;;;13.35;8.35;;;;;;;22.31;48.81;94892.66;4996394;28;20226;-65
2022/08/28 06:43:19;;;;;;;10.07;7.05;;;;;;;22.06;49.53;94887.41;5010638;28;20219;-65
2022/08/28 06:45:48;;;;;;;13.30;7.80;;;;;;;22.30;48.92;94888.34;5012195;28;20231;-65
2022/08/28 06:48:16;;;;;;;11.93;8.88;;;;;;;22.37;48.97;94889.06;5010902;28;20211;-65
2022/08/28 06:50:44;;;;;;;13.40;8.10;;;;;;;22.43;48.47;94888.16;5008522;28;20211;-65
2022/08/28 06:53:11;;;;;;;11.05;7.60;;;;;;;22.56;48.36;94889.00;5009394;28;20225;-65
2022/08/28 06:55:37;;;;;;;9.15;6.75;;;;;;;22.46;48.42;94890.38;5012688;28;20707;-65
2022/08/28 06:58:04;;;;;;;11.75;7.68;;;;;;;22.49;48.35;94886.41;5008494;28;20223;-64
2022/08/28 07:00:31;;;;;;;10.52;7.50;;;;;;;22.60;48.33;94891.00;5017704;28;20223;-64
2022/08/28 07:02:57;;;;;;;10.38;6.88;;;;;;;22.52;48.25;94898.53;5011050;28;20258;-64
2022/08/28 07:05:22;;;;;;;10.45;6.53;;;;;;;22.60;48.50;94885.63;5009839;28;20250;-65
2022/08/28 07:07:54;;;;;;;10.90;6.75;;;;;;;22.68;47.99;94879.94;5007659;28;20683;-65
2022/08/28 07:10:19;;;;;;;10.70;6.97;;;;;;;22.75;48.36;94885.19;5010292;28;20219;-64
2022/08/28 07:12:47;;;;;;;11.00;7.07;;;;;;;22.93;47.89;94883.47;5008117;28;20238;-64
2022/08/28 07:15:13;;;;;;;10.05;7.35;;;;;;;23.08;48.23;94883.84;5009734;28;20231;-64
2022/08/28 07:17:38;;;;;;;10.05;6.55;;;;;;;23.11;48.24;94888.75;5011109;28;20695;-65
2022/08/28 07:20:05;;;;;;;9.48;6.47;;;;;;;23.19;48.14;94884.91;5007950;28;20219;-65
2022/08/28 07:22:32;;;;;;;11.65;6.88;;;;;;;23.33;47.80;94886.28;5008806;28;20219;-65
2022/08/28 07:24:58;;;;;;;16.58;7.72;;;;;;;23.33;47.43;94886.28;5011405;28;20635;-64
2022/08/28 07:27:24;;;;;;;8.75;6.80;;;;;;;23.44;46.82;94887.34;5012652;28;20210;-65
2022/08/28 07:29:51;;;;;;;9.20;6.60;;;;;;;23.53;46.64;94888.63;5021283;28;20195;-64
2022/08/28 07:32:20;;;;;;;10.32;6.85;;;;;;;23.54;46.47;94882.19;5004584;28;20226;-65
2022/08/28 07:34:47;;;;;;;12.88;6.93;;;;;;;23.35;47.13;94878.84;4994622;28;20227;-65
2022/08/28 07:37:12;;;;;;;10.15;7.88;;;;;;;23.58;46.50;94878.00;5009303;28;20218;-64
2022/08/28 07:39:38;;;;;;;12.02;7.22;;;;;;;23.69;46.49;94879.03;5009663;28;20276;-65
2022/08/28 07:42:03;;;;;;;14.07;7.28;;;;;;;23.80;46.72;94886.25;4999347;28;20269;-64
2022/08/28 07:47:13;;;;;;;10.60;8.25;;;;;;;23.85;46.40;94877.50;5001113;28;20232;-65
2022/08/28 07:49:38;;;;;;;13.70;8.32;;;;;;;23.85;47.37;94875.63;5001687;28;20306;-63
2022/08/28 07:52:06;;;;;;;13.73;7.82;;;;;;;23.91;46.63;94868.50;5018228;28;20257;-63
2022/08/28 07:54:34;;;;;;;12.00;7.82;;;;;;;23.98;46.55;94866.50;5009310;28;20223;-63
2022/08/28 07:57:01;;;;;;;13.00;8.43;;;;;;;24.03;46.01;94863.06;5010845;28;20202;-63
2022/08/28 07:59:28;;;;;;;10.93;7.85;;;;;;;24.11;45.63;94871.56;5001584;28;20325;-63
2022/08/28 08:01:54;;;;;;;16.60;7.68;;;;;;;24.30;44.93;94874.88;5007840;28;20473;-63
2022/08/28 08:04:21;;;;;;;15.98;8.27;;;;;;;24.29;44.99;94867.84;5012939;28;20581;-64
2022/08/28 08:06:47;;;;;;;13.25;7.70;;;;;;;24.31;44.86;94876.50;5011557;28;20227;-64
2022/08/28 08:09:15;;;;;;;10.60;7.53;;;;;;;24.46;43.81;94870.63;5009881;28;20211;-64
2022/08/28 08:11:41;;;;;;;11.35;7.13;;;;;;;24.47;43.64;94869.56;5026123;28;20344;-64
2022/08/28 08:14:07;;;;;;;16.33;11.23;;;;;;;24.45;43.48;94876.22;5009768;28;20325;-67
2022/08/28 08:16:37;;;;;;;11.57;8.15;;;;;;;24.54;42.70;94875.59;5007416;28;20231;-64
2022/08/28 08:19:03;;;;;;;13.63;7.80;;;;;;;24.53;42.97;94873.16;5009761;28;20231;-64
2022/08/28 08:21:29;;;;;;;13.80;7.97;;;;;;;24.67;43.59;94869.09;5004679;28;20227;-65
2022/08/28 08:23:55;;;;;;;11.13;7.15;;;;;;;24.74;42.41;94866.25;5011559;28;20207;-65
2022/08/28 08:26:23;;;;;;;17.58;7.20;;;;;;;24.88;41.87;94870.22;5019539;28;20225;-65
2022/08/28 08:28:50;;;;;;;16.90;8.38;;;;;;;24.93;42.38;94869.50;5018466;28;20227;-64
2022/08/28 08:31:18;;;;;;;15.90;8.18;;;;;;;25.04;42.11;94871.28;5011422;28;20223;-64
2022/08/28 08:33:46;;;;;;;16.35;9.10;;;;;;;25.09;41.46;94869.50;5014052;28;20231;-64
2022/08/28 08:36:13;;;;;;;13.45;7.22;;;;;;;25.01;41.69;94869.09;5010638;28;20204;-64
2022/08/28 08:38:40;;;;;;;15.30;7.25;;;;;;;25.05;40.76;94863.00;5009431;28;20210;-65
2022/08/28 08:41:20;;;;;;;13.65;7.68;;;;;;;25.12;40.92;94870.06;5023228;28;20584;-64
2022/08/28 08:44:12;;;;;;;14.43;8.45;;;;;;;25.20;40.06;94856.22;5009412;28;20262;-64
2022/08/28 08:46:50;;;;;;;13.63;7.15;;;;;;;25.29;39.40;94855.56;5001480;28;20281;-65
2022/08/28 08:49:19;;;;;;;11.98;6.80;;;;;;;25.27;39.17;94856.88;5013120;28;20307;-64
2022/08/28 08:51:58;;;;;;;13.38;7.35;;;;;;;25.32;39.29;94856.97;5024024;28;20232;-64
2022/08/28 08:54:23;;;;;;;13.75;6.93;;;;;;;25.33;39.42;94855.88;5012361;28;20215;-64
2022/08/28 08:56:53;;;;;;;11.80;6.65;;;;;;;25.44;38.76;94857.66;5013022;28;20238;-64
2022/08/28 08:59:24;;;;;;;9.43;6.93;;;;;;;25.51;39.08;94852.91;5006155;28;20246;-64
2022/08/28 09:02:11;;;;;;;13.65;7.55;;;;;;;25.53;39.46;94852.66;5011473;28;20629;-64
2022/08/28 09:04:49;;;;;;;13.82;7.07;;;;;;;25.66;39.33;94855.00;5026883;28;20317;-64
2022/08/28 09:07:21;;;;;;;13.18;8.35;;;;;;;25.77;39.21;94855.94;5001136;28;20766;-64
2022/08/28 09:09:51;;;;;;;11.20;7.78;;;;;;;25.84;39.19;94855.75;5000916;28;20223;-63
2022/08/28 09:12:23;;;;;;;9.05;6.93;;;;;;;26.00;39.23;94854.06;5010883;28;20245;-64
2022/08/28 09:15:03;;;;;;;11.13;7.57;;;;;;;26.12;38.26;94849.34;5022885;28;20235;-64
2022/08/28 09:17:36;;;;;;;6.63;5.95;;;;;;;26.25;38.22;94854.34;5007028;28;20266;-64
2022/08/28 09:20:07;;;;;;;11.23;6.70;;;;;;;26.36;37.52;94857.97;5016108;28;20590;-64
2022/08/28 09:22:33;;;;;;;14.43;6.50;;;;;;;26.45;37.56;94855.63;5012154;28;20234;-64
2022/08/28 09:24:59;;;;;;;16.30;7.38;;;;;;;26.44;37.19;94849.41;5009390;28;20219;-64
2022/08/28 09:27:31;;;;;;;10.95;6.90;;;;;;;26.61;36.86;94857.41;5006654;28;20268;-64
2022/08/28 09:30:03;;;;;;;9.60;6.07;;;;;;;26.82;36.62;94847.63;5013490;28;20219;-65
2022/08/28 09:32:29;;;;;;;12.75;6.85;;;;;;;26.88;36.44;94848.47;5007399;28;20257;-65
2022/08/28 09:35:25;;;;;;;11.05;6.25;;;;;;;27.18;36.14;94846.00;5005850;28;20266;-65
2022/08/28 09:37:51;;;;;;;11.23;6.22;;;;;;;27.38;35.42;94844.53;5014555;28;20227;-65
2022/08/28 09:43:25;;;;;;;11.95;5.63;;;;;;;27.47;35.20;94846.44;5011386;28;20644;-64
2022/08/28 09:43:25;;;;;;;8.75;5.78;;;;;;;27.46;34.23;94836.75;5010317;28;20769;-64
2022/08/28 09:46:17;;;;;;;14.10;5.70;;;;;;;27.64;34.31;94835.50;5010943;28;20218;-65
2022/08/28 09:48:45;;;;;;;10.55;6.03;;;;;;;27.83;33.09;94837.75;5009495;28;20228;-64
2022/08/28 09:51:12;;;;;;;13.45;6.47;;;;;;;27.92;33.37;94836.16;5009299;28;20211;-64
2022/08/28 09:53:55;;;;;;;10.10;5.95;;;;;;;27.80;33.95;94828.28;5010416;28;20249;-65
2022/08/28 09:56:27;;;;;;;12.23;6.40;;;;;;;27.98;33.61;94828.88;5018129;28;20246;-64
2022/08/28 09:59:05;;;;;;;10.05;6.05;;;;;;;28.04;33.59;94823.25;5005654;28;20234;-64
2022/08/28 10:01:45;;;;;;;10.43;6.25;;;;;;;28.21;33.61;94822.19;4997828;28;20235;-64
2022/08/28 10:04:16;;;;;;;6.57;5.80;;;;;;;28.45;33.01;94820.63;4996149;28;20241;-64
2022/08/28 10:06:52;;;;;;;9.90;6.00;;;;;;;28.68;33.25;94818.47;5012648;28;20229;-64
2022/08/28 10:09:29;;;;;;;10.70;5.93;;;;;;;28.75;33.45;94814.44;5006465;28;20217;-65
2022/08/28 10:12:13;;;;;;;11.45;6.65;;;;;;;28.99;32.77;94813.88;5012886;28;20253;-65
2022/08/28 10:14:47;;;;;;;7.72;5.63;;;;;;;29.19;32.04;94813.88;5008572;28;20241;-65
2022/08/28 10:17:25;;;;;;;10.65;6.25;;;;;;;29.39;31.94;94810.31;5014270;28;20266;-65
2022/08/28 10:20:06;;;;;;;10.73;5.68;;;;;;;29.32;31.05;94801.66;5006006;28;20233;-65
2022/08/28 10:23:02;;;;;;;13.10;6.50;;;;;;;29.28;31.00;94806.00;5006610;28;20318;-64
2022/08/28 10:25:50;;;;;;;10.30;6.03;;;;;;;29.42;30.95;94798.13;5002761;28;20229;-65
2022/08/28 10:28:27;;;;;;;10.82;6.78;;;;;;;29.53;31.49;94797.00;4998535;28;20227;-65
2022/08/28 10:31:21;;;;;;;7.10;5.85;;;;;;;29.48;30.58;94788.88;5002000;28;20224;-65
2022/08/28 10:34:21;;;;;;;9.00;6.63;;;;;;;29.74;30.77;94791.53;5000727;28;20238;-64
2022/08/28 10:37:03;;;;;;;13.30;6.70;;;;;;;29.85;30.56;94790.38;5001374;28;20386;-63
2022/08/28 10:39:50;;;;;;;9.18;6.43;;;;;;;29.95;30.13;94803.09;5012769;28;20222;-63
2022/08/28 10:42:29;;;;;;;9.85;6.13;;;;;;;30.01;28.40;94796.56;5007693;28;20235;-63
2022/08/28 10:45:13;;;;;;;10.35;7.05;;;;;;;30.08;28.16;94795.16;5004667;28;20651;-64
2022/08/28 10:47:44;;;;;;;13.52;6.25;;;;;;;30.16;28.02;94796.47;5004734;28;20584;-63
2022/08/28 10:50:41;;;;;;;10.00;6.18;;;;;;;30.25;26.85;94792.09;5016675;28;20314;-63
2022/08/28 10:53:12;;;;;;;12.27;5.93;;;;;;;30.31;27.22;94791.00;4982813;28;20282;-64
2022/08/28 10:56:01;;;;;;;8.50;6.10;;;;;;;30.50;24.91;94793.00;5017860;28;20542;-64
2022/08/28 10:58:27;;;;;;;7.95;5.00;;;;;;;30.49;24.42;94778.63;4997464;28;20219;-64
2022/08/28 11:00:59;;;;;;;8.00;5.25;;;;;;;30.79;24.64;94784.91;5009512;28;20223;-63
2022/08/28 11:03:27;;;;;;;11.98;5.82;;;;;;;31.04;24.85;94783.91;5005078;28;20237;-63
2022/08/28 11:06:02;;;;;;;8.23;5.55;;;;;;;31.31;25.49;94786.09;5011628;28;20286;-64
2022/08/28 11:08:32;;;;;;;10.15;6.32;;;;;;;31.28;24.31;94780.44;4996371;28;20550;-64
2022/08/28 11:11:01;;;;;;;9.25;5.38;;;;;;;31.33;24.26;94780.34;5008388;28;20305;-65
2022/08/28 11:13:52;;;;;;;10.23;5.63;;;;;;;31.61;23.66;94781.44;5023959;28;20219;-64
2022/08/28 11:16:20;;;;;;;10.02;6.10;;;;;;;31.51;23.78;94774.19;5006797;28;20251;-63
2022/08/28 11:19:23;;;;;;;9.75;5.70;;;;;;;31.50;23.79;94769.88;5010365;28;20367;-63
2022/08/28 11:22:19;;;;;;;9.45;6.00;;;;;;;31.64;23.83;94778.13;5006060;28;20225;-64
2022/08/28 11:25:01;;;;;;;8.02;5.68;;;;;;;31.88;24.97;94764.50;4998648;28;20274;-63
2022/08/28 11:27:33;;;;;;;10.23;6.10;;;;;;;32.04;24.62;94773.28;5003080;28;20217;-65
2022/08/28 11:30:19;;;;;;;9.25;6.00;;;;;;;31.89;24.34;94771.56;5001949;28;20199;-64
2022/08/28 11:32:50;;;;;;;11.45;6.53;;;;;;;32.26;24.50;94769.97;4974636;28;20241;-63
2022/08/28 11:35:33;;;;;;;7.80;6.07;;;;;;;32.28;23.43;94770.50;4980926;28;20230;-63
2022/08/28 11:37:59;;;;;;;8.32;5.65;;;;;;;32.52;22.58;94770.44;4977539;28;20231;-64
2022/08/28 11:40:27;;;;;;;9.48;6.13;;;;;;;32.42;21.71;94770.56;4963646;28;20267;-64
2022/08/28 11:43:15;;;;;;;11.45;6.22;;;;;;;32.55;21.94;94763.59;4981556;28;20318;-64